createdAt,value
2023-01-17T00:05:20.554Z,10.10
2023-01-17T00:10:26.033Z,7.78
2023-01-17T00:15:31.053Z,16.33
2023-01-17T00:20:53.759Z,12.40
2023-01-17T00:26:05.552Z,11.48
2023-01-17T00:31:10.075Z,9.90
2023-01-17T00:36:13.272Z,11.65
2023-01-17T00:41:16.235Z,8.23
2023-01-17T00:46:37.987Z,4.30
2023-01-17T00:51:59.599Z,2.75
2023-01-17T00:57:21.848Z,2.45
2023-01-17T01:02:44.033Z,1.38
2023-01-17T01:08:05.434Z,2.65
2023-01-17T01:13:26.647Z,2.07
2023-01-17T01:18:47.806Z,1.95
2023-01-17T01:24:09.168Z,2.40
2023-01-17T01:29:30.361Z,2.17
2023-01-17T01:34:33.178Z,2.20
2023-01-17T01:39:35.828Z,1.80
2023-01-17T01:44:48.262Z,1.60
2023-01-17T01:49:51.520Z,1.45
2023-01-17T01:55:20.586Z,1.67
2023-01-17T02:00:27.747Z,1.58
2023-01-17T02:05:32.211Z,1.80
2023-01-17T02:10:36.681Z,1.10
2023-01-17T02:16:26.474Z,1.80
2023-01-17T02:22:01.850Z,1.52
2023-01-17T02:27:25.915Z,1.40
2023-01-17T02:32:49.837Z,1.57
2023-01-17T02:38:07.502Z,1.50
2023-01-17T02:43:14.603Z,1.20
2023-01-17T02:48:20.767Z,1.40
2023-01-17T02:53:47.965Z,2.10
2023-01-17T02:59:02.587Z,1.90
2023-01-17T03:04:37.471Z,1.77
2023-01-17T03:09:43.759Z,2.03
2023-01-17T03:14:46.405Z,2.35
2023-01-17T03:19:49.040Z,1.92
2023-01-17T03:24:51.747Z,2.63
2023-01-17T03:29:54.749Z,2.17
2023-01-17T03:34:57.509Z,1.90
2023-01-17T03:40:00.242Z,2.03
2023-01-17T03:45:03.064Z,2.38
2023-01-17T03:50:06.680Z,1.87
2023-01-17T03:55:09.945Z,1.80
2023-01-17T04:00:14.094Z,1.70
2023-01-17T04:05:17.416Z,1.60
2023-01-17T04:10:20.310Z,1.85
2023-01-17T04:15:23.021Z,2.20
2023-01-17T04:20:35.140Z,1.92
2023-01-17T04:25:37.982Z,1.98
2023-01-17T04:30:40.827Z,2.03
2023-01-17T04:35:43.536Z,1.67
2023-01-17T04:40:46.305Z,1.47
2023-01-17T04:45:54.424Z,1.83
2023-01-17T04:51:05.356Z,1.65
2023-01-17T04:56:08.632Z,2.42
2023-01-17T05:01:11.589Z,1.50
2023-01-17T05:06:14.383Z,1.57
2023-01-17T05:11:18.219Z,1.40
2023-01-17T05:16:21.138Z,1.58
2023-01-17T05:21:24.101Z,2.80
2023-01-17T05:26:26.999Z,1.85
2023-01-17T05:31:29.793Z,1.80
2023-01-17T05:36:32.523Z,2.50
2023-01-17T05:41:35.232Z,2.70
2023-01-17T05:46:38.096Z,2.75
2023-01-17T05:51:40.996Z,2.63
2023-01-17T05:56:43.855Z,1.87
2023-01-17T06:01:46.678Z,2.40
2023-01-17T06:06:49.518Z,2.00
2023-01-17T06:11:52.622Z,2.72
2023-01-17T06:16:55.719Z,2.20
2023-01-17T06:21:58.456Z,2.60
2023-01-17T06:27:01.436Z,2.30
2023-01-17T06:32:04.637Z,2.38
2023-01-17T06:37:08.254Z,2.20
2023-01-17T06:42:11.135Z,2.17
2023-01-17T06:47:14.321Z,1.93
2023-01-17T06:52:17.341Z,1.98
2023-01-17T06:57:20.227Z,2.50
2023-01-17T07:02:23.301Z,2.70
2023-01-17T07:07:26.161Z,3.25
2023-01-17T07:12:28.931Z,2.40
2023-01-17T07:17:31.817Z,2.67
2023-01-17T07:22:34.652Z,3.38
2023-01-17T07:27:37.333Z,2.08
2023-01-17T07:32:40.178Z,3.15
2023-01-17T07:37:48.662Z,2.57
2023-01-17T07:42:51.622Z,5.15
2023-01-17T07:47:57.128Z,4.35
2023-01-17T07:52:59.872Z,5.97
2023-01-17T07:58:03.196Z,10.32
2023-01-17T08:03:06.536Z,12.67
2023-01-17T08:08:09.416Z,9.18
2023-01-17T08:13:12.146Z,9.52
2023-01-17T08:18:15.133Z,8.45
2023-01-17T08:23:18.024Z,6.28
2023-01-17T08:28:20.788Z,5.97
2023-01-17T08:33:23.776Z,6.93
2023-01-17T08:38:26.629Z,8.07
2023-01-17T08:43:29.582Z,7.93
2023-01-17T08:48:32.363Z,7.35
2023-01-17T08:53:35.232Z,7.27
2023-01-17T08:58:38.131Z,7.20
2023-01-17T09:03:41.195Z,6.93
2023-01-17T09:08:48.214Z,5.97
2023-01-17T09:13:50.978Z,5.28
2023-01-17T09:18:58.103Z,5.43
2023-01-17T09:24:00.880Z,5.20
2023-01-17T09:29:04.119Z,5.95
2023-01-17T09:34:07.294Z,4.38
2023-01-17T09:39:11.700Z,4.20
2023-01-17T09:44:34.849Z,4.27
2023-01-17T09:49:44.309Z,3.70
2023-01-17T09:54:49.421Z,4.97
2023-01-17T10:00:02.585Z,4.78
2023-01-17T10:05:23.107Z,4.75
2023-01-17T10:10:55.403Z,4.27
2023-01-17T10:16:13.291Z,4.07
2023-01-17T10:21:34.282Z,4.13
2023-01-17T10:26:38.161Z,4.28
2023-01-17T10:31:49.370Z,4.22
2023-01-17T10:37:00.764Z,4.00
2023-01-17T10:42:13.337Z,10.70
2023-01-17T10:47:22.083Z,12.85
2023-01-17T10:52:29.836Z,11.32
2023-01-17T10:57:44.428Z,11.38
2023-01-17T11:02:50.921Z,10.67
2023-01-17T11:08:06.213Z,9.45
2023-01-17T11:13:26.868Z,7.82
2023-01-17T11:18:33.711Z,6.47
2023-01-17T11:23:36.666Z,7.47
2023-01-17T11:28:41.773Z,6.57
2023-01-17T11:33:54.229Z,5.80
2023-01-17T11:39:22.585Z,6.13
2023-01-17T11:44:31.529Z,7.15
2023-01-17T11:49:34.255Z,7.10
2023-01-17T11:54:40.569Z,6.43
2023-01-17T11:59:44.785Z,6.95
2023-01-17T12:05:15.648Z,5.72
2023-01-17T12:10:47.424Z,5.60
2023-01-17T12:16:31.381Z,5.88
2023-01-17T12:21:46.006Z,6.50
2023-01-17T12:26:59.201Z,5.22
2023-01-17T12:32:42.055Z,5.05
2023-01-17T12:37:57.353Z,4.50
2023-01-17T12:43:19.925Z,4.40
2023-01-17T12:48:28.980Z,4.90
2023-01-17T12:53:49.744Z,4.03
2023-01-17T12:58:57.017Z,4.03
2023-01-17T13:04:09.873Z,3.80
2023-01-17T13:09:18.930Z,2.50
2023-01-17T13:14:21.824Z,2.37
2023-01-17T13:20:06.587Z,2.40
2023-01-17T13:25:49.633Z,2.10
2023-01-17T13:31:14.261Z,2.28
2023-01-17T13:37:02.791Z,2.65
2023-01-17T13:42:28.563Z,2.27
2023-01-17T13:47:32.407Z,2.50
2023-01-17T13:52:36.003Z,1.88
2023-01-17T13:57:44.013Z,1.80
2023-01-17T14:02:49.428Z,1.80
2023-01-17T14:08:04.242Z,2.00
2023-01-17T14:13:36.038Z,2.00
2023-01-17T14:18:41.279Z,1.83
2023-01-17T14:24:06.866Z,1.88
2023-01-17T14:30:01.787Z,1.85
2023-01-17T14:35:24.006Z,2.20
2023-01-17T14:40:30.896Z,1.75
2023-01-17T14:45:36.115Z,1.40
2023-01-17T14:50:41.052Z,1.60
2023-01-17T14:55:50.766Z,1.92
2023-01-17T15:01:11.061Z,2.10
2023-01-17T15:06:23.431Z,1.80
2023-01-17T15:11:33.773Z,2.00
2023-01-17T15:16:39.098Z,2.17
2023-01-17T15:21:44.415Z,2.92
2023-01-17T15:26:47.931Z,3.00
2023-01-17T15:31:54.385Z,3.03
2023-01-17T15:37:00.906Z,3.72
2023-01-17T15:42:19.499Z,2.97
2023-01-17T15:47:34.401Z,3.45
2023-01-17T15:52:55.109Z,3.57
2023-01-17T15:57:57.994Z,2.80
2023-01-17T16:03:00.946Z,8.40
2023-01-17T16:08:04.556Z,7.60
2023-01-17T16:13:09.739Z,6.38
2023-01-17T16:18:24.919Z,7.37
2023-01-17T16:23:28.796Z,7.28
2023-01-17T16:28:31.633Z,5.75
2023-01-17T16:33:34.691Z,6.03
2023-01-17T16:38:37.826Z,4.82
2023-01-17T16:43:40.615Z,5.07
2023-01-17T16:48:43.615Z,4.97
2023-01-17T16:53:46.557Z,4.60
2023-01-17T16:58:51.433Z,5.50
2023-01-17T17:03:54.448Z,4.63
2023-01-17T17:08:59.302Z,4.33
2023-01-17T17:14:03.200Z,4.70
2023-01-17T17:19:07.531Z,5.05
2023-01-17T17:24:15.109Z,5.72
2023-01-17T17:29:17.983Z,4.88
2023-01-17T17:34:21.218Z,5.60
2023-01-17T17:39:24.012Z,4.20
2023-01-17T17:44:27.751Z,6.95
2023-01-17T17:49:31.046Z,5.38
2023-01-17T17:54:34.351Z,6.45
2023-01-17T17:59:37.246Z,5.80
2023-01-17T18:04:40.103Z,6.78
2023-01-17T18:09:43.137Z,6.22
2023-01-17T18:14:46.126Z,4.18
2023-01-17T18:19:49.270Z,3.10
2023-01-17T18:24:53.207Z,3.93
2023-01-17T18:29:56.437Z,3.30
2023-01-17T18:34:59.391Z,3.95
2023-01-17T18:40:02.176Z,2.95
2023-01-17T18:45:05.524Z,2.72
2023-01-17T18:50:09.081Z,5.67
2023-01-17T18:55:11.980Z,8.05
2023-01-17T19:00:15.499Z,9.85
2023-01-17T19:05:22.289Z,8.25
2023-01-17T19:10:26.199Z,8.55
2023-01-17T19:15:31.583Z,6.77
2023-01-17T19:20:35.623Z,8.77
2023-01-17T19:25:38.381Z,7.97
2023-01-17T19:30:41.166Z,7.80
2023-01-17T19:35:44.043Z,7.70
2023-01-17T19:40:46.788Z,7.37
2023-01-17T19:45:59.889Z,12.35
2023-01-17T19:51:07.156Z,10.20
2023-01-17T19:56:12.796Z,12.02
2023-01-17T20:01:28.858Z,12.48
2023-01-17T20:06:36.638Z,9.33
2023-01-17T20:11:43.445Z,9.32
2023-01-17T20:16:47.795Z,13.60
2023-01-17T20:21:51.000Z,8.85
2023-01-17T20:26:53.787Z,13.10
2023-01-17T20:31:56.660Z,10.23
2023-01-17T20:36:59.672Z,10.07
2023-01-17T20:42:02.695Z,10.43
2023-01-17T20:47:05.788Z,10.30
2023-01-17T20:52:08.636Z,8.98
2023-01-17T20:57:11.431Z,8.60
2023-01-17T21:02:14.528Z,9.13
2023-01-17T21:07:18.299Z,12.07
2023-01-17T21:12:21.931Z,9.57
2023-01-17T21:17:24.742Z,9.27
2023-01-17T21:22:29.048Z,9.43
2023-01-17T21:27:32.349Z,10.82
2023-01-17T21:32:35.168Z,13.00
2023-01-17T21:37:38.465Z,11.77
2023-01-17T21:42:41.278Z,11.25
2023-01-17T21:47:44.826Z,11.43
2023-01-17T21:52:47.561Z,13.80
2023-01-17T21:58:09.062Z,12.13
2023-01-17T22:03:11.957Z,12.23
2023-01-17T22:08:15.578Z,11.05
2023-01-17T22:13:19.893Z,10.07
2023-01-17T22:18:23.776Z,12.93
2023-01-17T22:23:27.090Z,11.52
2023-01-17T22:28:32.283Z,10.00
2023-01-17T22:33:36.276Z,11.32
2023-01-17T22:38:39.087Z,11.40
2023-01-17T22:43:44.876Z,8.85
2023-01-17T22:48:48.014Z,11.48
2023-01-17T22:53:53.299Z,11.48
2023-01-17T22:58:56.151Z,10.55
2023-01-17T23:04:04.258Z,11.67
2023-01-17T23:09:13.107Z,10.55
2023-01-17T23:14:27.677Z,10.38
2023-01-17T23:19:36.529Z,9.77
2023-01-17T23:24:45.597Z,11.18
2023-01-17T23:29:48.189Z,11.33
2023-01-17T23:34:51.225Z,9.15
2023-01-17T23:39:53.858Z,7.55
2023-01-17T23:44:56.581Z,8.63
2023-01-17T23:49:59.226Z,7.90
2023-01-17T23:55:01.927Z,7.03
